This is the latest recevied weather packets stored in our database for station/object DB0BGL. If no packets are shown the sender has not sent any weather packets the latest 10 day(s).
| Time | Temp. | Humidity | Pressure | Rain* | Wind** | Luminosity | Snow |
|---|---|---|---|---|---|---|---|
| 1778072000 | 16.67° C | 42% | 0 hPa | 0 mm | - | - | - |
| 1778071399 | 16.11° C | 42% | 0 hPa | 0 mm | - | - | - |
| 1778070799 | 15° C | 47% | 0 hPa | 0 mm | - | - | - |
| 1778069534 | -17.78° C | 100% | 0 hPa | 0 mm | - | - | - |
| 1778068815 | -17.78° C | 100% | 0 hPa | 0 mm | - | - | - |
| 1778068209 | -17.78° C | 100% | 0 hPa | 0 mm | - | - | - |
| 1778068093 | -17.78° C | 100% | 0 hPa | 0 mm | - | - | - |
| 1778066652 | -17.78° C | 100% | 0 hPa | 0 mm | - | - | - |
| 1778065212 | -17.78° C | 100% | 0 hPa | 0 mm | - | - | - |
| 1778064619 | -17.78° C | 100% | 0 hPa | 0 mm | - | - | - |
| 1778064618 | -17.78° C | 100% | 0 hPa | 0 mm | - | - | - |
| 1778064490 | -17.78° C | 100% | 0 hPa | 0 mm | - | - | - |
| 1778063769 | -17.78° C | 100% | 0 hPa | 0 mm | - | - | - |
| 1778063048 | -17.78° C | 100% | 0 hPa | 0 mm | - | - | - |
| 1778060886 | -17.78° C | 100% | 0 hPa | 0 mm | - | - | - |
| 1778059447 | -17.78° C | 100% | 0 hPa | 0 mm | - | - | - |
| 1778055298 | 12.78° C | 55% | 0 hPa | 0 mm | - | - | - |
| 1778055294 | 12.78° C | 55% | 0 hPa | 0 mm | - | - | - |
| 1778054694 | 13.89° C | 63% | 0 hPa | 0 mm | - | - | - |
| 1778054093 | 15.56° C | 54% | 0 hPa | 0 mm | - | - | - |
| 1778053493 | 13.33° C | 63% | 0 hPa | 0 mm | - | - | - |
| 1778052892 | 12.78° C | 64% | 0 hPa | 0 mm | - | - | - |
| 1778052292 | 12.78° C | 66% | 0 hPa | 0 mm | - | - | - |
| 1778051691 | 13.89° C | 61% | 0 hPa | 0 mm | - | - | - |
| 1778051090 | 15° C | 58% | 0 hPa | 0 mm | - | - | - |
* Rain latest hour (hover to see other rain measurements)
** Current wind speed in m/s (hover to see current wind gust speed)